This is the latest recevied weather packets stored in our database for station/object EA6MW-10. If no packets are shown the sender has not sent any weather packets the latest 10 day(s).
| Time | Temp. | Humidity | Pressure | Rain* | Wind** | Luminosity | Snow |
|---|---|---|---|---|---|---|---|
| 1777619238 | 25.56° C | 58% | 1020.1 hPa | - | - | - | - |
| 1777618338 | 25° C | 60% | 1020.1 hPa | - | - | - | - |
| 1777617438 | 22.78° C | 69% | 1020 hPa | - | - | - | - |
| 1777616537 | 20° C | 80% | 1020.1 hPa | - | - | - | - |
| 1777615636 | 17.22° C | 87% | 1020.1 hPa | - | - | - | - |
| 1777614736 | 16.67° C | 89% | 1019.9 hPa | - | - | - | - |
| 1777613836 | 16.11° C | 90% | 1019.8 hPa | - | - | - | - |
| 1777612935 | 16.11° C | 91% | 1019.7 hPa | - | - | - | - |
| 1777612035 | 16.11° C | 90% | 1019.6 hPa | - | - | - | - |
| 1777611135 | 16.11° C | 90% | 1019.6 hPa | - | - | - | - |
| 1777610235 | 16.11° C | 90% | 1019.6 hPa | - | - | - | - |
| 1777609334 | 15.56° C | 91% | 1019.5 hPa | - | - | - | - |
| 1777608434 | 16.11° C | 91% | 1019.4 hPa | - | - | - | - |
| 1777607534 | 15.56° C | 91% | 1019.3 hPa | - | - | - | - |
| 1777606633 | 15.56° C | 93% | 1019.1 hPa | - | - | - | - |
| 1777605733 | 15.56° C | 93% | 1019.2 hPa | - | - | - | - |
| 1777604833 | 15° C | 93% | 1019.2 hPa | - | - | - | - |
| 1777603932 | 15° C | 93% | 1019.3 hPa | - | - | - | - |
| 1777603032 | 15° C | 94% | 1019.3 hPa | - | - | - | - |
| 1777602131 | 14.44° C | 95% | 1019.3 hPa | - | - | - | - |
| 1777601231 | 13.89° C | 96% | 1019.1 hPa | - | - | - | - |
| 1777600331 | 13.89° C | 96% | 1019.1 hPa | - | - | - | - |
| 1777599431 | 13.89° C | 96% | 1019.1 hPa | - | - | - | - |
| 1777598530 | 13.89° C | 95% | 1019.1 hPa | - | - | - | - |
| 1777597630 | 14.44° C | 95% | 1019.1 hPa | - | - | - | - |
* Rain since midnight (hover to see other rain measurements)
** Current wind speed in m/s (hover to see current wind gust speed)